sensor_id;sensor_type;location;lat;lon;timestamp;pressure;altitude;pressure_sealevel;temperature
13497;BMP180;6820;49.374;8.452;2023-09-19T00:01:56;100051.47;;;25.01
13497;BMP180;6820;49.374;8.452;2023-09-19T00:05:59;100054.03;;;25.00
13497;BMP180;6820;49.374;8.452;2023-09-19T00:10:01;100063.56;;;24.93
13497;BMP180;6820;49.374;8.452;2023-09-19T00:14:04;100072.22;;;24.91
13497;BMP180;6820;49.374;8.452;2023-09-19T00:18:08;100070.50;;;24.88
13497;BMP180;6820;49.374;8.452;2023-09-19T00:22:10;100065.28;;;24.88
13497;BMP180;6820;49.374;8.452;2023-09-19T00:26:14;100078.28;;;24.87
13497;BMP180;6820;49.374;8.452;2023-09-19T00:30:19;100079.97;;;24.83
13497;BMP180;6820;49.374;8.452;2023-09-19T00:34:23;100072.22;;;24.85
13497;BMP180;6820;49.374;8.452;2023-09-19T00:38:25;100086.91;;;24.84
13497;BMP180;6820;49.374;8.452;2023-09-19T00:42:28;100095.53;;;24.82
13497;BMP180;6820;49.374;8.452;2023-09-19T00:46:31;100090.31;;;24.76
13497;BMP180;6820;49.374;8.452;2023-09-19T00:50:35;100094.66;;;24.74
13497;BMP180;6820;49.374;8.452;2023-09-19T00:54:36;100094.66;;;24.70
13497;BMP180;6820;49.374;8.452;2023-09-19T00:58:38;100100.69;;;24.73
13497;BMP180;6820;49.374;8.452;2023-09-19T01:02:42;100108.47;;;24.73
13497;BMP180;6820;49.374;8.452;2023-09-19T01:06:47;100115.38;;;24.73
13497;BMP180;6820;49.374;8.452;2023-09-19T01:11:02;100115.41;;;24.71
13497;BMP180;6820;49.374;8.452;2023-09-19T01:15:14;100115.38;;;24.68
13497;BMP180;6820;49.374;8.452;2023-09-19T01:23:52;100124.00;;;24.63
13497;BMP180;6820;49.374;8.452;2023-09-19T01:32:42;100117.97;;;24.59
13497;BMP180;6820;49.374;8.452;2023-09-19T01:36:45;100127.47;;;24.56
13497;BMP180;6820;49.374;8.452;2023-09-19T01:40:57;100128.31;;;24.59
13497;BMP180;6820;49.374;8.452;2023-09-19T01:45:12;100129.19;;;24.55
13497;BMP180;6820;49.374;8.452;2023-09-19T01:54:12;100134.41;;;24.66
13497;BMP180;6820;49.374;8.452;2023-09-19T01:58:30;100145.63;;;24.79
13497;BMP180;6820;49.374;8.452;2023-09-19T02:02:37;100137.91;;;24.87
13497;BMP180;6820;49.374;8.452;2023-09-19T02:06:40;100142.22;;;24.95
13497;BMP180;6820;49.374;8.452;2023-09-19T02:10:42;100147.38;;;24.97
13497;BMP180;6820;49.374;8.452;2023-09-19T02:14:44;100150.00;;;24.98
13497;BMP180;6820;49.374;8.452;2023-09-19T02:18:48;100150.00;;;24.98
13497;BMP180;6820;49.374;8.452;2023-09-19T02:22:51;100153.47;;;25.03
13497;BMP180;6820;49.374;8.452;2023-09-19T02:26:53;100162.97;;;25.08
13497;BMP180;6820;49.374;8.452;2023-09-19T02:30:56;100171.59;;;25.06
13497;BMP180;6820;49.374;8.452;2023-09-19T02:34:58;100178.53;;;25.04
13497;BMP180;6820;49.374;8.452;2023-09-19T02:39:04;100188.03;;;25.01
13497;BMP180;6820;49.374;8.452;2023-09-19T02:43:07;100196.66;;;24.97
13497;BMP180;6820;49.374;8.452;2023-09-19T02:47:10;100191.47;;;24.94
13497;BMP180;6820;49.374;8.452;2023-09-19T02:51:12;100187.16;;;24.88
13497;BMP180;6820;49.374;8.452;2023-09-19T02:55:16;100195.81;;;24.84
13497;BMP180;6820;49.374;8.452;2023-09-19T02:59:22;100195.75;;;24.77
13497;BMP180;6820;49.374;8.452;2023-09-19T03:03:23;100193.16;;;24.74
13497;BMP180;6820;49.374;8.452;2023-09-19T03:07:25;100194.00;;;24.64
13497;BMP180;6820;49.374;8.452;2023-09-19T03:11:27;100194.88;;;24.60
13497;BMP180;6820;49.374;8.452;2023-09-19T03:15:31;100204.34;;;24.60
13497;BMP180;6820;49.374;8.452;2023-09-19T03:19:34;100212.09;;;24.57
13497;BMP180;6820;49.374;8.452;2023-09-19T03:23:36;100216.41;;;24.50
13497;BMP180;6820;49.374;8.452;2023-09-19T03:27:40;100215.56;;;24.47
13497;BMP180;6820;49.374;8.452;2023-09-19T03:31:43;100228.50;;;24.43
13497;BMP180;6820;49.374;8.452;2023-09-19T03:35:52;100224.13;;;24.34
13497;BMP180;6820;49.374;8.452;2023-09-19T03:39:54;100238.78;;;24.29
13497;BMP180;6820;49.374;8.452;2023-09-19T03:43:56;100235.34;;;24.26
13497;BMP180;6820;49.374;8.452;2023-09-19T03:47:58;100248.28;;;24.23
13497;BMP180;6820;49.374;8.452;2023-09-19T03:52:00;100242.22;;;24.24
13497;BMP180;6820;49.374;8.452;2023-09-19T03:56:02;100254.22;;;24.17
13497;BMP180;6820;49.374;8.452;2023-09-19T04:00:07;100249.06;;;24.16
13497;BMP180;6820;49.374;8.452;2023-09-19T04:04:13;100246.47;;;24.17
13497;BMP180;6820;49.374;8.452;2023-09-19T04:08:16;100243.91;;;24.19
13497;BMP180;6820;49.374;8.452;2023-09-19T04:12:17;100260.28;;;24.18
13497;BMP180;6820;49.374;8.452;2023-09-19T04:16:19;100268.91;;;24.13
13497;BMP180;6820;49.374;8.452;2023-09-19T04:20:21;100264.50;;;24.04
13497;BMP180;6820;49.374;8.452;2023-09-19T04:24:26;100260.19;;;24.00
13497;BMP180;6820;49.374;8.452;2023-09-19T04:28:28;100262.78;;;24.00
13497;BMP180;6820;49.374;8.452;2023-09-19T04:32:30;100268.84;;;24.04
13497;BMP180;6820;49.374;8.452;2023-09-19T04:36:34;100274.06;;;24.08
13497;BMP180;6820;49.374;8.452;2023-09-19T04:40:38;100278.34;;;24.09
13497;BMP180;6820;49.374;8.452;2023-09-19T04:44:41;100278.34;;;24.09
13497;BMP180;6820;49.374;8.452;2023-09-19T04:48:44;100280.09;;;24.09
13497;BMP180;6820;49.374;8.452;2023-09-19T04:52:45;100284.41;;;24.11
13497;BMP180;6820;49.374;8.452;2023-09-19T04:56:47;100282.69;;;24.07
13497;BMP180;6820;49.374;8.452;2023-09-19T05:00:49;100286.13;;;24.09
13497;BMP180;6820;49.374;8.452;2023-09-19T05:04:52;100295.63;;;24.07
13497;BMP180;6820;49.374;8.452;2023-09-19T05:08:55;100308.53;;;24.03
13497;BMP180;6820;49.374;8.452;2023-09-19T05:12:57;100311.94;;;23.99
13497;BMP180;6820;49.374;8.452;2023-09-19T05:16:58;100321.41;;;23.91
13497;BMP180;6820;49.374;8.452;2023-09-19T05:21:02;100323.97;;;23.89
13497;BMP180;6820;49.374;8.452;2023-09-19T05:25:04;100324.00;;;23.92
13497;BMP180;6820;49.374;8.452;2023-09-19T05:29:06;100330.03;;;23.90
13497;BMP180;6820;49.374;8.452;2023-09-19T05:33:09;100334.34;;;23.92
13497;BMP180;6820;49.374;8.452;2023-09-19T05:37:11;100326.59;;;23.92
13497;BMP180;6820;49.374;8.452;2023-09-19T05:41:12;100330.91;;;23.95
13497;BMP180;6820;49.374;8.452;2023-09-19T05:45:15;100331.78;;;23.91
13497;BMP180;6820;49.374;8.452;2023-09-19T05:49:23;100341.25;;;23.93
13497;BMP180;6820;49.374;8.452;2023-09-19T05:53:26;100339.56;;;23.95
13497;BMP180;6820;49.374;8.452;2023-09-19T05:57:27;100343.91;;;24.01
13497;BMP180;6820;49.374;8.452;2023-09-19T06:01:32;100349.16;;;24.11
13497;BMP180;6820;49.374;8.452;2023-09-19T06:05:36;100348.31;;;24.16
13497;BMP180;6820;49.374;8.452;2023-09-19T06:09:38;100353.56;;;24.22
13497;BMP180;6820;49.374;8.452;2023-09-19T06:13:40;100360.53;;;24.31
13497;BMP180;6820;49.374;8.452;2023-09-19T06:17:43;100365.78;;;24.40
13497;BMP180;6820;49.374;8.452;2023-09-19T06:21:47;100377.88;;;24.42
13497;BMP180;6820;49.374;8.452;2023-09-19T06:25:49;100375.28;;;24.44
13497;BMP180;6820;49.374;8.452;2023-09-19T06:29:51;100383.94;;;24.43
13497;BMP180;6820;49.374;8.452;2023-09-19T06:33:53;100384.81;;;24.45
13497;BMP180;6820;49.374;8.452;2023-09-19T06:37:54;100383.09;;;24.48
13497;BMP180;6820;49.374;8.452;2023-09-19T06:41:59;100385.72;;;24.54
13497;BMP180;6820;49.374;8.452;2023-09-19T06:46:03;100393.50;;;24.60
13497;BMP180;6820;49.374;8.452;2023-09-19T06:50:06;100394.41;;;24.62
13497;BMP180;6820;49.374;8.452;2023-09-19T06:54:10;100396.97;;;24.56
13497;BMP180;6820;49.374;8.452;2023-09-19T06:58:12;100403.03;;;24.59
13497;BMP180;6820;49.374;8.452;2023-09-19T07:02:14;100397.81;;;24.56
13497;BMP180;6820;49.374;8.452;2023-09-19T07:06:15;100403.88;;;24.57
13497;BMP180;6820;49.374;8.452;2023-09-19T07:10:17;100409.97;;;24.63
13497;BMP180;6820;49.374;8.452;2023-09-19T07:14:19;100416.91;;;24.73
13497;BMP180;6820;49.374;8.452;2023-09-19T07:18:21;100422.13;;;24.75
13497;BMP180;6820;49.374;8.452;2023-09-19T07:22:23;100416.09;;;24.83
13497;BMP180;6820;49.374;8.452;2023-09-19T07:26:25;100418.75;;;24.89
13497;BMP180;6820;49.374;8.452;2023-09-19T07:30:27;100430.88;;;24.93
13497;BMP180;6820;49.374;8.452;2023-09-19T07:34:29;100436.09;;;25.00
13497;BMP180;6820;49.374;8.452;2023-09-19T07:38:31;100446.50;;;25.03
13497;BMP180;6820;49.374;8.452;2023-09-19T07:42:34;100457.72;;;25.08
13497;BMP180;6820;49.374;8.452;2023-09-19T07:46:36;100462.91;;;25.08
13497;BMP180;6820;49.374;8.452;2023-09-19T07:50:38;100453.44;;;25.13
13497;BMP180;6820;49.374;8.452;2023-09-19T07:54:41;100463.88;;;25.28
13497;BMP180;6820;49.374;8.452;2023-09-19T07:58:45;100464.75;;;25.37
13497;BMP180;6820;49.374;8.452;2023-09-19T08:02:47;100458.72;;;25.37
13497;BMP180;6820;49.374;8.452;2023-09-19T08:07:01;100464.88;;;25.55
13497;BMP180;6820;49.374;8.452;2023-09-19T08:11:06;100463.16;;;25.71
13497;BMP180;6820;49.374;8.452;2023-09-19T08:15:18;100465.75;;;25.69
13497;BMP180;6820;49.374;8.452;2023-09-19T08:19:22;100464.91;;;25.80
13497;BMP180;6820;49.374;8.452;2023-09-19T08:23:25;100483.09;;;25.81
13497;BMP180;6820;49.374;8.452;2023-09-19T08:27:27;100479.66;;;25.90
13497;BMP180;6820;49.374;8.452;2023-09-19T08:31:28;100491.78;;;25.97
13497;BMP180;6820;49.374;8.452;2023-09-19T08:35:31;100490.03;;;26.06
13497;BMP180;6820;49.374;8.452;2023-09-19T08:39:32;100493.56;;;26.30
13497;BMP180;6820;49.374;8.452;2023-09-19T08:47:50;100490.06;;;26.66
13497;BMP180;6820;49.374;8.452;2023-09-19T08:52:04;100491.81;;;26.69
13497;BMP180;6820;49.374;8.452;2023-09-19T08:56:10;100496.13;;;26.85
13497;BMP180;6820;49.374;8.452;2023-09-19T09:00:13;100489.19;;;26.78
13497;BMP180;6820;49.374;8.452;2023-09-19T09:04:16;100492.69;;;26.74
13497;BMP180;6820;49.374;8.452;2023-09-19T09:08:19;100482.25;;;26.81
13497;BMP180;6820;49.374;8.452;2023-09-19T09:12:24;100490.09;;;26.77
13497;BMP180;6820;49.374;8.452;2023-09-19T09:16:29;100497.00;;;26.73
13497;BMP180;6820;49.374;8.452;2023-09-19T09:20:31;100490.94;;;26.83
13497;BMP180;6820;49.374;8.452;2023-09-19T09:24:33;100500.38;;;27.12
13497;BMP180;6820;49.374;8.452;2023-09-19T09:28:44;100490.81;;;27.19
13497;BMP180;6820;49.374;8.452;2023-09-19T09:32:46;100500.34;;;27.36
13497;BMP180;6820;49.374;8.452;2023-09-19T09:37:14;100495.88;;;27.60
13497;BMP180;6820;49.374;8.452;2023-09-19T09:41:17;100500.19;;;27.62
13497;BMP180;6820;49.374;8.452;2023-09-19T09:45:29;100496.81;;;27.49
13497;BMP180;6820;49.374;8.452;2023-09-19T09:49:47;100489.84;;;27.48
13497;BMP180;6820;49.374;8.452;2023-09-19T09:54:11;100494.09;;;27.68
13497;BMP180;6820;49.374;8.452;2023-09-19T09:58:17;100489.59;;;27.93
13497;BMP180;6820;49.374;8.452;2023-09-19T10:02:28;100495.81;;;27.66
13497;BMP180;6820;49.374;8.452;2023-09-19T10:06:41;100488.13;;;27.45
13497;BMP180;6820;49.374;8.452;2023-09-19T10:10:49;100483.81;;;27.40
13497;BMP180;6820;49.374;8.452;2023-09-19T10:15:06;100486.41;;;27.44
13497;BMP180;6820;49.374;8.452;2023-09-19T10:19:09;100486.41;;;27.40
13497;BMP180;6820;49.374;8.452;2023-09-19T10:23:22;100480.41;;;27.20
13497;BMP180;6820;49.374;8.452;2023-09-19T10:27:29;100483.06;;;27.11
13497;BMP180;6820;49.374;8.452;2023-09-19T10:31:34;100476.06;;;27.25
13497;BMP180;6820;49.374;8.452;2023-09-19T10:35:45;100470.88;;;27.15
13497;BMP180;6820;49.374;8.452;2023-09-19T10:39:48;100469.19;;;27.06
13497;BMP180;6820;49.374;8.452;2023-09-19T10:43:50;100472.63;;;27.13
13497;BMP180;6820;49.374;8.452;2023-09-19T10:47:56;100468.19;;;27.29
13497;BMP180;6820;49.374;8.452;2023-09-19T10:52:01;100476.91;;;27.28
13497;BMP180;6820;49.374;8.452;2023-09-19T10:56:04;100479.50;;;27.24
13497;BMP180;6820;49.374;8.452;2023-09-19T11:00:17;100465.63;;;27.32
13497;BMP180;6820;49.374;8.452;2023-09-19T11:04:27;100476.03;;;27.37
13497;BMP180;6820;49.374;8.452;2023-09-19T11:09:03;100469.09;;;27.34
13497;BMP180;6820;49.374;8.452;2023-09-19T11:13:29;100480.34;;;27.39
13497;BMP180;6820;49.374;8.452;2023-09-19T11:17:35;100452.50;;;27.59
13497;BMP180;6820;49.374;8.452;2023-09-19T11:21:40;100463.63;;;27.79
13497;BMP180;6820;49.374;8.452;2023-09-19T11:25:43;100443.66;;;27.79
13497;BMP180;6820;49.374;8.452;2023-09-19T11:30:25;100450.53;;;27.87
13497;BMP180;6820;49.374;8.452;2023-09-19T11:42:49;100426.75;;;28.30
13497;BMP180;6820;49.374;8.452;2023-09-19T11:46:56;100436.97;;;28.54
13497;BMP180;6820;49.374;8.452;2023-09-19T11:51:00;100419.50;;;28.62
13497;BMP180;6820;49.374;8.452;2023-09-19T11:55:08;100427.06;;;28.85
13497;BMP180;6820;49.374;8.452;2023-09-19T11:59:26;100420.25;;;28.73
13497;BMP180;6820;49.374;8.452;2023-09-19T12:03:31;100415.00;;;28.76
13497;BMP180;6820;49.374;8.452;2023-09-19T12:07:42;100412.34;;;28.78
13497;BMP180;6820;49.374;8.452;2023-09-19T12:11:47;100408.84;;;28.82
13497;BMP180;6820;49.374;8.452;2023-09-19T12:15:51;100407.94;;;28.83
13497;BMP180;6820;49.374;8.452;2023-09-19T12:19:53;100415.75;;;28.88
13497;BMP180;6820;49.374;8.452;2023-09-19T12:24:12;100391.34;;;28.90
13497;BMP180;6820;49.374;8.452;2023-09-19T12:28:20;100385.19;;;28.94
13497;BMP180;6820;49.374;8.452;2023-09-19T12:32:35;100399.00;;;29.04
13497;BMP180;6820;49.374;8.452;2023-09-19T12:36:37;100379.94;;;29.00
13497;BMP180;6820;49.374;8.452;2023-09-19T12:40:41;100366.69;;;29.15
13497;BMP180;6820;49.374;8.452;2023-09-19T12:44:51;100364.69;;;29.32
13497;BMP180;6820;49.374;8.452;2023-09-19T12:49:26;100360.94;;;29.50
13497;BMP180;6820;49.374;8.452;2023-09-19T12:53:40;100352.94;;;29.61
13497;BMP180;6820;49.374;8.452;2023-09-19T12:58:14;100358.78;;;29.79
13497;BMP180;6820;49.374;8.452;2023-09-19T13:02:20;100351.78;;;29.79
13497;BMP180;6820;49.374;8.452;2023-09-19T13:06:35;100349.66;;;30.02
13497;BMP180;6820;49.374;8.452;2023-09-19T13:11:16;100352.34;;;30.45
13497;BMP180;6820;49.374;8.452;2023-09-19T13:15:22;100351.50;;;30.43
13497;BMP180;6820;49.374;8.452;2023-09-19T13:19:46;100354.06;;;30.48
13497;BMP180;6820;49.374;8.452;2023-09-19T13:23:53;100345.31;;;30.49
13497;BMP180;6820;49.374;8.452;2023-09-19T13:28:01;100335.47;;;31.03
13497;BMP180;6820;49.374;8.452;2023-09-19T13:32:05;100330.34;;;30.97
13497;BMP180;6820;49.374;8.452;2023-09-19T13:36:07;100321.72;;;31.32
13497;BMP180;6820;49.374;8.452;2023-09-19T13:40:14;100318.03;;;31.41
13497;BMP180;6820;49.374;8.452;2023-09-19T13:44:16;100314.75;;;31.31
13497;BMP180;6820;49.374;8.452;2023-09-19T13:48:18;100314.94;;;31.24
13497;BMP180;6820;49.374;8.452;2023-09-19T13:52:32;100306.41;;;31.51
13497;BMP180;6820;49.374;8.452;2023-09-19T13:56:35;100301.84;;;31.58
13497;BMP180;6820;49.374;8.452;2023-09-19T14:00:38;100312.34;;;31.58
13497;BMP180;6820;49.374;8.452;2023-09-19T14:04:40;100305.88;;;31.73
13497;BMP180;6820;49.374;8.452;2023-09-19T14:08:44;100303.59;;;31.59
13497;BMP180;6820;49.374;8.452;2023-09-19T14:12:49;100305.13;;;31.66
13497;BMP180;6820;49.374;8.452;2023-09-19T14:16:51;100300.16;;;31.92
13497;BMP180;6820;49.374;8.452;2023-09-19T14:20:56;100314.84;;;31.63
13497;BMP180;6820;49.374;8.452;2023-09-19T14:24:58;100296.91;;;31.47
13497;BMP180;6820;49.374;8.452;2023-09-19T14:29:01;100296.97;;;31.80
13497;BMP180;6820;49.374;8.452;2023-09-19T14:33:04;100291.53;;;31.87
13497;BMP180;6820;49.374;8.452;2023-09-19T14:37:06;100305.22;;;31.98
13497;BMP180;6820;49.374;8.452;2023-09-19T14:41:08;100303.22;;;32.07
13497;BMP180;6820;49.374;8.452;2023-09-19T14:45:10;100287.06;;;32.22
13497;BMP180;6820;49.374;8.452;2023-09-19T14:49:13;100288.63;;;31.97
13497;BMP180;6820;49.374;8.452;2023-09-19T14:53:17;100293.31;;;31.87
13497;BMP180;6820;49.374;8.452;2023-09-19T14:57:18;100288.56;;;31.66
13497;BMP180;6820;49.374;8.452;2023-09-19T15:01:20;100288.81;;;31.57
13497;BMP180;6820;49.374;8.452;2023-09-19T15:05:23;100280.69;;;31.31
13497;BMP180;6820;49.374;8.452;2023-09-19T15:09:26;100277.81;;;31.06
13497;BMP180;6820;49.374;8.452;2023-09-19T15:13:27;100287.03;;;30.84
13497;BMP180;6820;49.374;8.452;2023-09-19T15:17:31;100281.22;;;30.70
13497;BMP180;6820;49.374;8.452;2023-09-19T15:21:32;100281.81;;;30.41
13497;BMP180;6820;49.374;8.452;2023-09-19T15:25:34;100289.91;;;30.29
13497;BMP180;6820;49.374;8.452;2023-09-19T15:29:36;100285.41;;;30.37
13497;BMP180;6820;49.374;8.452;2023-09-19T15:33:40;100288.56;;;30.52
13497;BMP180;6820;49.374;8.452;2023-09-19T15:37:42;100276.34;;;30.53
13497;BMP180;6820;49.374;8.452;2023-09-19T15:41:45;100262.38;;;30.54
13497;BMP180;6820;49.374;8.452;2023-09-19T15:45:50;100262.13;;;30.65
13497;BMP180;6820;49.374;8.452;2023-09-19T15:49:53;100244.47;;;30.76
13497;BMP180;6820;49.374;8.452;2023-09-19T15:53:55;100245.69;;;30.98
13497;BMP180;6820;49.374;8.452;2023-09-19T15:57:58;100252.38;;;31.11
13497;BMP180;6820;49.374;8.452;2023-09-19T16:02:00;100247.94;;;31.13
13497;BMP180;6820;49.374;8.452;2023-09-19T16:06:01;100245.00;;;31.27
13497;BMP180;6820;49.374;8.452;2023-09-19T16:10:03;100239.53;;;31.38
13497;BMP180;6820;49.374;8.452;2023-09-19T16:14:05;100235.28;;;31.32
13497;BMP180;6820;49.374;8.452;2023-09-19T16:18:08;100241.22;;;31.40
13497;BMP180;6820;49.374;8.452;2023-09-19T16:22:10;100239.44;;;31.41
13497;BMP180;6820;49.374;8.452;2023-09-19T16:26:13;100244.09;;;31.30
13497;BMP180;6820;49.374;8.452;2023-09-19T16:30:17;100238.31;;;31.13
13497;BMP180;6820;49.374;8.452;2023-09-19T16:34:19;100241.34;;;30.97
13497;BMP180;6820;49.374;8.452;2023-09-19T16:38:24;100249.28;;;30.94
13497;BMP180;6820;49.374;8.452;2023-09-19T16:42:25;100237.31;;;30.83
13497;BMP180;6820;49.374;8.452;2023-09-19T16:46:29;100244.88;;;30.56
13497;BMP180;6820;49.374;8.452;2023-09-19T16:50:32;100244.81;;;30.18
13497;BMP180;6820;49.374;8.452;2023-09-19T16:54:35;100240.00;;;29.95
13497;BMP180;6820;49.374;8.452;2023-09-19T16:58:37;100246.47;;;29.74
13497;BMP180;6820;49.374;8.452;2023-09-19T17:02:40;100241.56;;;29.55
13497;BMP180;6820;49.374;8.452;2023-09-19T17:06:42;100247.03;;;29.42
13497;BMP180;6820;49.374;8.452;2023-09-19T17:10:47;100243.00;;;29.23
13497;BMP180;6820;49.374;8.452;2023-09-19T17:14:49;100247.53;;;29.12
13497;BMP180;6820;49.374;8.452;2023-09-19T17:18:55;100248.66;;;28.95
13497;BMP180;6820;49.374;8.452;2023-09-19T17:22:58;100250.50;;;28.87
13497;BMP180;6820;49.374;8.452;2023-09-19T17:26:59;100259.38;;;28.75
13497;BMP180;6820;49.374;8.452;2023-09-19T17:31:08;100256.00;;;28.65
13497;BMP180;6820;49.374;8.452;2023-09-19T17:35:11;100258.78;;;28.52
13497;BMP180;6820;49.374;8.452;2023-09-19T17:39:13;100252.84;;;28.38
13497;BMP180;6820;49.374;8.452;2023-09-19T17:43:17;100262.59;;;28.26
13497;BMP180;6820;49.374;8.452;2023-09-19T17:47:18;100269.63;;;28.17
13497;BMP180;6820;49.374;8.452;2023-09-19T17:51:20;100270.59;;;28.10
13497;BMP180;6820;49.374;8.452;2023-09-19T17:55:22;100275.06;;;27.99
13497;BMP180;6820;49.374;8.452;2023-09-19T17:59:23;100279.44;;;27.92
13497;BMP180;6820;49.374;8.452;2023-09-19T18:03:25;100284.69;;;27.85
13497;BMP180;6820;49.374;8.452;2023-09-19T18:07:27;100293.41;;;27.86
13497;BMP180;6820;49.374;8.452;2023-09-19T18:11:29;100284.72;;;27.84
13497;BMP180;6820;49.374;8.452;2023-09-19T18:15:32;100291.72;;;27.80
13497;BMP180;6820;49.374;8.452;2023-09-19T18:19:39;100294.38;;;27.73
13497;BMP180;6820;49.374;8.452;2023-09-19T18:23:40;100297.88;;;27.70
13497;BMP180;6820;49.374;8.452;2023-09-19T18:27:42;100296.22;;;27.62
13497;BMP180;6820;49.374;8.452;2023-09-19T18:31:45;100303.19;;;27.55
13497;BMP180;6820;49.374;8.452;2023-09-19T18:35:47;100309.28;;;27.55
13497;BMP180;6820;49.374;8.452;2023-09-19T18:39:48;100313.63;;;27.53
13497;BMP180;6820;49.374;8.452;2023-09-19T18:43:51;100326.75;;;27.44
13497;BMP180;6820;49.374;8.452;2023-09-19T18:48:19;100310.25;;;27.43
13497;BMP180;6820;49.374;8.452;2023-09-19T18:52:50;100307.69;;;27.39
13497;BMP180;6820;49.374;8.452;2023-09-19T18:56:52;100319.88;;;27.35
13497;BMP180;6820;49.374;8.452;2023-09-19T19:01:01;100318.09;;;27.33
13497;BMP180;6820;49.374;8.452;2023-09-19T19:05:06;100328.53;;;27.30
13497;BMP180;6820;49.374;8.452;2023-09-19T19:09:12;100340.72;;;27.25
13497;BMP180;6820;49.374;8.452;2023-09-19T19:13:13;100342.47;;;27.22
13497;BMP180;6820;49.374;8.452;2023-09-19T19:17:15;100331.22;;;27.15
13497;BMP180;6820;49.374;8.452;2023-09-19T19:21:17;100338.16;;;27.13
13497;BMP180;6820;49.374;8.452;2023-09-19T19:25:24;100335.63;;;27.07
13497;BMP180;6820;49.374;8.452;2023-09-19T19:29:29;100333.91;;;27.03
13497;BMP180;6820;49.374;8.452;2023-09-19T19:33:31;100346.94;;;26.99
13497;BMP180;6820;49.374;8.452;2023-09-19T19:37:32;100344.34;;;26.96
13497;BMP180;6820;49.374;8.452;2023-09-19T19:41:35;100349.59;;;26.89
13497;BMP180;6820;49.374;8.452;2023-09-19T19:45:40;100356.53;;;26.84
13497;BMP180;6820;49.374;8.452;2023-09-19T19:49:42;100352.25;;;26.80
13497;BMP180;6820;49.374;8.452;2023-09-19T19:53:46;100363.50;;;26.76
13497;BMP180;6820;49.374;8.452;2023-09-19T19:57:49;100356.56;;;26.72
13497;BMP180;6820;49.374;8.452;2023-09-19T20:01:50;100369.56;;;26.72
13497;BMP180;6820;49.374;8.452;2023-09-19T20:05:52;100365.25;;;26.68
13497;BMP180;6820;49.374;8.452;2023-09-19T20:09:54;100371.31;;;26.67
13497;BMP180;6820;49.374;8.452;2023-09-19T20:13:56;100373.91;;;26.67
13497;BMP180;6820;49.374;8.452;2023-09-19T20:18:01;100369.59;;;26.69
13497;BMP180;6820;49.374;8.452;2023-09-19T20:22:03;100368.72;;;26.68
13497;BMP180;6820;49.374;8.452;2023-09-19T20:26:10;100374.81;;;26.66
13497;BMP180;6820;49.374;8.452;2023-09-19T20:30:13;100367.00;;;26.63
13497;BMP180;6820;49.374;8.452;2023-09-19T20:34:15;100373.94;;;26.61
13497;BMP180;6820;49.374;8.452;2023-09-19T20:38:17;100373.09;;;26.58
13497;BMP180;6820;49.374;8.452;2023-09-19T20:42:18;100368.75;;;26.57
13497;BMP180;6820;49.374;8.452;2023-09-19T20:46:22;100364.44;;;26.53
13497;BMP180;6820;49.374;8.452;2023-09-19T20:50:24;100372.22;;;26.51
13497;BMP180;6820;49.374;8.452;2023-09-19T20:54:31;100367.03;;;26.48
13497;BMP180;6820;49.374;8.452;2023-09-19T20:58:36;100370.53;;;26.46
13497;BMP180;6820;49.374;8.452;2023-09-19T21:02:38;100373.13;;;26.41
13497;BMP180;6820;49.374;8.452;2023-09-19T21:06:40;100383.56;;;26.34
13497;BMP180;6820;49.374;8.452;2023-09-19T21:10:41;100373.16;;;26.25
13497;BMP180;6820;49.374;8.452;2023-09-19T21:14:43;100370.59;;;26.18
13497;BMP180;6820;49.374;8.452;2023-09-19T21:18:45;100357.56;;;26.09
13497;BMP180;6820;49.374;8.452;2023-09-19T21:22:47;100365.41;;;26.13
13497;BMP180;6820;49.374;8.452;2023-09-19T21:26:50;100369.69;;;26.17
13497;BMP180;6820;49.374;8.452;2023-09-19T21:31:00;100374.03;;;26.21
13497;BMP180;6820;49.374;8.452;2023-09-19T21:35:02;100364.50;;;26.22
13497;BMP180;6820;49.374;8.452;2023-09-19T21:39:06;100362.78;;;26.21
13497;BMP180;6820;49.374;8.452;2023-09-19T21:43:08;100361.94;;;26.20
13497;BMP180;6820;49.374;8.452;2023-09-19T21:47:10;100359.34;;;26.20
13497;BMP180;6820;49.374;8.452;2023-09-19T21:51:11;100354.13;;;26.19
13497;BMP180;6820;49.374;8.452;2023-09-19T21:55:13;100354.13;;;26.20
13497;BMP180;6820;49.374;8.452;2023-09-19T21:59:15;100352.38;;;26.22
13497;BMP180;6820;49.374;8.452;2023-09-19T22:03:17;100351.53;;;26.22
13497;BMP180;6820;49.374;8.452;2023-09-19T22:07:20;100355.84;;;26.23
13497;BMP180;6820;49.374;8.452;2023-09-19T22:11:22;100343.75;;;26.20
13497;BMP180;6820;49.374;8.452;2023-09-19T22:15:25;100344.59;;;26.15
13497;BMP180;6820;49.374;8.452;2023-09-19T22:19:27;100343.75;;;26.16
13497;BMP180;6820;49.374;8.452;2023-09-19T22:23:29;100344.59;;;26.21
13497;BMP180;6820;49.374;8.452;2023-09-19T22:27:34;100349.78;;;26.24
13497;BMP180;6820;49.374;8.452;2023-09-19T22:31:36;100350.63;;;26.27
13497;BMP180;6820;49.374;8.452;2023-09-19T22:35:43;100341.97;;;26.30
13497;BMP180;6820;49.374;8.452;2023-09-19T22:39:49;100358.44;;;26.34
13497;BMP180;6820;49.374;8.452;2023-09-19T22:43:51;100348.03;;;26.32
13497;BMP180;6820;49.374;8.452;2023-09-19T22:47:57;100348.06;;;26.26
13497;BMP180;6820;49.374;8.452;2023-09-19T22:51:59;100351.53;;;26.26
13497;BMP180;6820;49.374;8.452;2023-09-19T22:56:01;100365.38;;;26.24
13497;BMP180;6820;49.374;8.452;2023-09-19T23:00:12;100362.78;;;26.19
13497;BMP180;6820;49.374;8.452;2023-09-19T23:04:16;100362.78;;;26.19
13497;BMP180;6820;49.374;8.452;2023-09-19T23:08:18;100361.06;;;26.26
13497;BMP180;6820;49.374;8.452;2023-09-19T23:12:20;100360.16;;;26.25
13497;BMP180;6820;49.374;8.452;2023-09-19T23:16:22;100367.13;;;26.20
13497;BMP180;6820;49.374;8.452;2023-09-19T23:20:34;100360.16;;;26.09
13497;BMP180;6820;49.374;8.452;2023-09-19T23:24:40;100362.78;;;26.03
13497;BMP180;6820;49.374;8.452;2023-09-19T23:28:43;100355.84;;;26.00
13497;BMP180;6820;49.374;8.452;2023-09-19T23:32:45;100361.91;;;25.97
13497;BMP180;6820;49.374;8.452;2023-09-19T23:36:47;100359.34;;;25.94
13497;BMP180;6820;49.374;8.452;2023-09-19T23:40:48;100359.31;;;25.88
13497;BMP180;6820;49.374;8.452;2023-09-19T23:44:53;100359.31;;;25.82
13497;BMP180;6820;49.374;8.452;2023-09-19T23:48:56;100367.97;;;25.70
13497;BMP180;6820;49.374;8.452;2023-09-19T23:52:58;100374.03;;;25.61
13497;BMP180;6820;49.374;8.452;2023-09-19T23:57:02;100364.53;;;25.54
